AirNav   Pilot Hours Calculator
 
 1196 users online  

E61 Conchas Lake Seaplane Base
Conchas Dam, New Mexico, USA

GOING TO CONCHAS DAM?


FAA INFORMATION EFFECTIVE 11 AUGUST 2022

Location

FAA Identifier: E61
Lat/Long: 35-23-03.1750N 104-12-58.9150W
35-23.052917N 104-12.981917W
35.3842153,-104.2163653
(estimated)
Elevation: 4201 ft. / 1280 m (estimated)
Variation: 10E (1985)
From city: 2 miles SW of CONCHAS DAM, NM
Time zone: UTC -6 (UTC -7 during Standard Time)
Zip code: 88421

Seaplane Base Operations

Seaplane Base use: Open to the public
Activation date: 01/1979
Control tower: no
ARTCC: ALBUQUERQUE CENTER
FSS: ALBUQUERQUE FLIGHT SERVICE STATION
NOTAMs facility: ABQ (NOTAM-D service available)
Attendance: UNATNDD
Wind indicator: no
Segmented circle: no

Seaplane Base Communications

CTAF: 122.9

Nearby radio navigation aids

VOR radial/distance  VOR name  Freq  Var
TCCr280/32.6TUCUMCARI VORTAC113.6012E

Seaplane Base Services

Runway Information

Runway ALL/WAY

Dimensions: 21120 x 1320 ft. / 6437 x 402 m
Surface: water
RUNWAY ALL  RUNWAY WAY
Traffic pattern: leftleft

Seaplane Base Ownership and Management from official FAA records

Ownership: Publicly-owned
Owner: ABQ DIST; US ARMY CORPS OF ENG
287 BELL RANCH RD
CONCHAS DAM, NM 88416
Phone 575-868-2221
Manager: GREG CARPENTER
287 BELL RANCH RD
CONCHAS DAM, NM 88416
Phone 575-868-2221
EMERGENCY PHONE PETE DREVNICK 928-266-9250.

Seaplane Base Operational Statistics

Aircraft operations: 20/year *
100% transient general aviation
* for 12-month period ending 31 March 2021

Additional Remarks

A52-ALL ALL/WAY DAM 5000' NE OF SEALANE.
SMALL BOAT TRAFFIC HEAVY IN LANDING AREA MAY-OCT.
LAKE LEVEL FLUCTUATES FM 4153 FT TO 4201 FT MSL. LNDG AREA BECOMES HAZARDOUS DUE TO EXPOSED SNAGS & LAND MASSES AT LEVELS BELOW 4175 FT.
SEAPLANE OPERATIONS ARE PROHIBITED ON THAT PORTION OF THE LAKE NORTH OF THE DAM.
WIND WARNING LGTS LCTD WEST OF DAM AT LODGE TO THE SOUTH. LIGHTS FLASH IF WINDS ARE GREATER THAN 20 MPH.
MOST WINDS OUT OF SW. RECOMMEND LNDG AND TKOF OPNS TO THE WEST.
MONITOR LAKE LEVEL BY CONTACTING CRNS OFFICE AT 575-868-2221, FACEBOOK OR U.S.C.G.S WEBSITE UNDER CONCHAS LAKE.
FOR CD CTC ALBUQUERQUE ARTCC AT 505-856-4861.

Instrument Procedures

There are no published instrument procedures at E61.

Some nearby airports with instrument procedures:

KTCC - Tucumcari Municipal Airport (32 nm E)
KLVS - Las Vegas Municipal Airport (48 nm W)
KCVS - Cannon Air Force Base (74 nm SE)
KCVN - Clovis Regional Airport (80 nm SE)
KAXX - Angel Fire Airport (81 nm NW)
 
Loc | Ops | Rwys | IFR | FBO | Links
Com | Nav | Svcs | Stats | Notes

Chandler Aviation LLC
 
Area around E61 (Conchas Lake Seaplane Base)
 
Road maps at: MapQuest Bing Google
 
Aerial photo
WARNING: Photo may not be current or correct
Aerial photo of E61 (Conchas Lake Seaplane Base)
Photo by Alan Resnicke, N325WV, Grumman AA5
Taken in May 2007
looking southwest.

Do you have a better or more recent aerial photo of Conchas Lake Seaplane Base that you would like to share? If so, please send us your photo.

 
Sectional chart

 
Airport distance calculator
Flying to Conchas Lake Seaplane Base? Find the distance to fly.

From to E61

Sunrise and sunset
Times for 13-Aug-2022
 Local
(UTC-6)
 Zulu
(UTC)
Morning civil twilight05:4911:49
Sunrise06:1612:16
Sunset19:4801:48
Evening civil twilight20:1502:15

Current date and time
Zulu (UTC)  13-Aug-2022 17:53:14
Local (UTC-6)  13-Aug-2022 11:53:14
 
METAR
KTCC 
33nm E 
131653Z AUTO 24008G17KT 10SM CLR 31/11 A3020 RMK AO2 SLP158 T03110106
KSXU 
34nm SW 
131735Z AUTO 18010KT 10SM CLR 29/11 A3026 RMK AO2 T02860106
KLVS 
48nm W 
131653Z AUTO 19008G15KT 10SM CLR 24/09 A3040 RMK AO2 SLP183 T02440089
TAF
KTCC 
33nm E 
131122Z 1312/1412 VRB05KT P6SM SKC FM131900 20009KT P6SM FEW090 FM140500 VRB06KT P6SM SKC
NOTAMs
Click for the latest NOTAMs
NOTAMs are issued by the DoD/FAA and will open in a separate window not controlled by AirNav.

 

 
 

Would you like to see your business listed on this page?

 If your business provides an interesting product or service to pilots, flight crews, aircraft, or users of the Conchas Lake Seaplane Base, you should consider listing it here.  To start the listing process, click on the button below
 
Add a business
 

Other Pages about Conchas Lake Seaplane Base

Update a link
 
Copyright © AirNav, LLC. All rights reserved. Privacy Policy  Contact